Accueil
METAR-TAF:

METAR-TAF

Aéroports :

Base aérienne de Büchel

Büchel, Allemagne

latitude: 50-10N, longitude: 007-04E, altitude: 478 m

Observation

Le bulletin a été fait il y a 48 minutes, à 16:20 UTC
Vent 7 kt de sud-ouest
Température 7°C
Humidité 53%
Pression 1020 hPa
Visibilité 10 km ou plus
Nuages fragmentés à une hauteur de 17000 ft

METAR: ETSB 281620Z 22007KT 9999 BKN170 07/M02 Q1020 BLU

Heure: 18:08 (17:08 UTC)

Prévision

Le bulletin a été fait il y a 2 heures et 46 minutes, à 14:22 UTC
Prévision valable du 28 à 15 UTC au 28 à 24 UTC
Vent 5 kt de sud
Visibilité 10 km ou plus
Nuages fragmentés à une hauteur de 24000 ft
Evoluant progressivement
du 28 à 23 UTC au 28 à 24 UTC
Vent 5 kt de sud/sud-ouest
Visibilité: 2000 m
Nuages fragmentés à une hauteur de 300 ft
brume,

TAF: ETSB 281422Z 2815/2824 17005KT 9999 NSW BKN240 BECMG 2823/2824 20005KT 2000 BR BKN003

Observations et prévisions météorologiques de plus de 4000 aéroports (messages METAR et TAF).

Les stations disponibles sont représentées par des disques jaunes et rouges sur la carte.

Passer la souris dessus pour voir le nom de la station.

Cliquer dessus pour voir les observations et prévisions météorologiques.

Pour changer de carte: cliquez sur les boutons verts avec une croix noire pour zoomer, sur le bouton vert avec un tiret pour effectuer un zoom arrière, ou sur les flèches vertes pour les cartes adjacentes.


METAR-TAF: